createdAt,value
2022-11-24T00:01:33.177Z,23.79
2022-11-24T00:03:35.138Z,23.34
2022-11-24T00:05:36.910Z,23.48
2022-11-24T00:07:38.654Z,23.61
2022-11-24T00:09:40.307Z,23.55
2022-11-24T00:11:41.964Z,23.46
2022-11-24T00:13:43.879Z,23.39
2022-11-24T00:15:45.639Z,23.22
2022-11-24T00:17:47.329Z,23.25
2022-11-24T00:19:48.967Z,23.26
2022-11-24T00:21:50.757Z,23.45
2022-11-24T00:23:52.501Z,23.43
2022-11-24T00:25:54.242Z,23.45
2022-11-24T00:27:55.963Z,23.06
2022-11-24T00:29:57.633Z,22.90
2022-11-24T00:31:59.374Z,23.03
2022-11-24T00:34:03.283Z,23.00
2022-11-24T00:36:05.417Z,23.00
2022-11-24T00:38:07.071Z,23.26
2022-11-24T00:40:09.153Z,23.26
2022-11-24T00:42:10.860Z,23.00
2022-11-24T00:44:12.512Z,23.17
2022-11-24T00:46:14.305Z,22.90
2022-11-24T00:48:16.037Z,23.08
2022-11-24T00:50:17.860Z,23.14
2022-11-24T00:52:19.542Z,22.74
2022-11-24T00:54:21.400Z,22.96
2022-11-24T00:56:23.948Z,22.98
2022-11-24T00:58:25.784Z,22.89
2022-11-24T01:00:27.495Z,22.99
2022-11-24T01:02:29.289Z,22.83
2022-11-24T01:04:31.095Z,22.87
2022-11-24T01:06:32.990Z,22.77
2022-11-24T01:08:36.198Z,22.58
2022-11-24T01:10:38.281Z,22.91
2022-11-24T01:12:39.957Z,22.58
2022-11-24T01:14:41.716Z,22.81
2022-11-24T01:16:43.484Z,22.93
2022-11-24T01:18:45.552Z,22.66
2022-11-24T01:20:47.248Z,23.00
2022-11-24T01:22:49.478Z,22.67
2022-11-24T01:24:51.244Z,22.60
2022-11-24T01:26:52.903Z,22.68
2022-11-24T01:28:55.624Z,22.57
2022-11-24T01:31:05.215Z,22.79
2022-11-24T01:33:06.884Z,22.35
2022-11-24T01:35:09.344Z,22.56
2022-11-24T01:37:11.052Z,22.78
2022-11-24T01:39:12.875Z,22.77
2022-11-24T01:41:24.239Z,22.71
2022-11-24T01:43:25.892Z,22.75
2022-11-24T01:45:37.169Z,22.70
2022-11-24T01:47:39.732Z,22.65
2022-11-24T01:49:44.583Z,22.62
2022-11-24T01:51:50.983Z,22.49
2022-11-24T01:53:57.244Z,22.71
2022-11-24T01:55:58.959Z,22.61
2022-11-24T01:58:06.627Z,22.62
2022-11-24T02:00:10.113Z,22.36
2022-11-24T02:02:11.894Z,22.48
2022-11-24T02:04:14.319Z,22.70
2022-11-24T02:06:21.935Z,22.57
2022-11-24T02:08:42.513Z,22.29
2022-11-24T02:10:44.457Z,22.75
2022-11-24T02:12:47.108Z,22.65
2022-11-24T02:14:48.831Z,22.46
2022-11-24T02:16:50.835Z,22.60
2022-11-24T02:18:52.577Z,22.64
2022-11-24T02:20:54.305Z,22.54
2022-11-24T02:23:07.225Z,22.29
2022-11-24T02:25:15.040Z,22.38
2022-11-24T02:27:16.939Z,22.64
2022-11-24T02:29:18.627Z,22.37
2022-11-24T02:31:20.426Z,22.42
2022-11-24T02:33:22.117Z,22.19
2022-11-24T02:35:23.741Z,22.21
2022-11-24T02:37:25.419Z,22.33
2022-11-24T02:39:27.150Z,22.66
2022-11-24T02:41:28.824Z,22.34
2022-11-24T02:43:32.397Z,22.39
2022-11-24T02:45:34.141Z,22.73
2022-11-24T02:47:35.835Z,22.31
2022-11-24T02:49:37.533Z,22.71
2022-11-24T02:51:39.221Z,22.79
2022-11-24T02:53:40.956Z,22.56
2022-11-24T02:55:42.744Z,22.66
2022-11-24T02:57:44.568Z,22.64
2022-11-24T02:59:46.246Z,22.36
2022-11-24T03:01:48.008Z,22.32
2022-11-24T03:03:49.773Z,22.74
2022-11-24T03:05:51.429Z,22.78
2022-11-24T03:07:53.161Z,22.81
2022-11-24T03:09:54.861Z,22.63
2022-11-24T03:11:56.554Z,22.62
2022-11-24T03:13:58.254Z,22.68
2022-11-24T03:15:59.990Z,22.68
2022-11-24T03:18:01.858Z,22.69
2022-11-24T03:20:05.079Z,22.38
2022-11-24T03:22:07.143Z,22.33
2022-11-24T03:24:08.854Z,22.72
2022-11-24T03:26:15.101Z,22.40
2022-11-24T03:28:16.831Z,22.32
2022-11-24T03:30:18.686Z,22.14
2022-11-24T03:32:20.453Z,22.47
2022-11-24T03:34:22.187Z,22.61
2022-11-24T03:36:23.879Z,22.40
2022-11-24T03:38:25.551Z,22.44
2022-11-24T03:40:27.214Z,22.09
2022-11-24T03:42:28.886Z,22.32
2022-11-24T03:44:30.633Z,22.07
2022-11-24T03:46:32.396Z,22.44
2022-11-24T03:48:34.111Z,22.21
2022-11-24T03:50:35.862Z,22.30
2022-11-24T03:52:37.607Z,22.41
2022-11-24T03:54:39.336Z,22.34
2022-11-24T03:56:41.048Z,22.22
2022-11-24T03:58:42.767Z,21.88
2022-11-24T04:00:44.523Z,21.62
2022-11-24T04:02:46.222Z,21.84
2022-11-24T04:04:49.825Z,21.86
2022-11-24T04:06:51.871Z,22.23
2022-11-24T04:08:53.608Z,21.65
2022-11-24T04:10:55.338Z,22.23
2022-11-24T04:12:57.045Z,22.31
2022-11-24T04:14:58.761Z,22.04
2022-11-24T04:17:01.882Z,22.21
2022-11-24T04:19:05.883Z,21.98
2022-11-24T04:21:07.510Z,22.26
2022-11-24T04:23:09.363Z,22.29
2022-11-24T04:25:11.066Z,22.58
2022-11-24T04:27:12.792Z,22.34
2022-11-24T04:29:14.464Z,22.26
2022-11-24T04:31:16.164Z,22.18
2022-11-24T04:33:17.895Z,22.52
2022-11-24T04:35:19.692Z,22.43
2022-11-24T04:37:21.267Z,22.70
2022-11-24T04:39:26.316Z,22.28
2022-11-24T04:41:30.003Z,22.70
2022-11-24T04:43:35.160Z,22.58
2022-11-24T04:45:39.406Z,22.68
2022-11-24T04:47:40.997Z,22.74
2022-11-24T04:49:42.595Z,22.38
2022-11-24T04:51:44.223Z,22.65
2022-11-24T04:53:45.826Z,22.81
2022-11-24T04:55:47.415Z,22.58
2022-11-24T04:57:48.998Z,22.81
2022-11-24T04:59:51.102Z,22.77
2022-11-24T05:01:52.741Z,22.47
2022-11-24T05:03:55.205Z,22.81
2022-11-24T05:05:58.813Z,22.46
2022-11-24T05:08:00.499Z,22.50
2022-11-24T05:10:02.252Z,22.99
2022-11-24T05:12:03.973Z,22.56
2022-11-24T05:14:05.584Z,22.62
2022-11-24T05:16:07.476Z,23.01
2022-11-24T05:18:11.408Z,22.65
2022-11-24T05:20:13.033Z,22.89
2022-11-24T05:22:14.605Z,22.84
2022-11-24T05:24:16.202Z,22.65
2022-11-24T05:26:17.782Z,22.83
2022-11-24T05:28:19.394Z,22.93
2022-11-24T05:30:20.970Z,22.42
2022-11-24T05:32:22.575Z,22.72
2022-11-24T05:34:24.179Z,22.85
2022-11-24T05:36:25.761Z,23.02
2022-11-24T05:38:27.339Z,22.61
2022-11-24T05:40:28.932Z,22.87
2022-11-24T05:42:30.520Z,23.05
2022-11-24T05:44:32.529Z,22.79
2022-11-24T05:46:34.481Z,22.83
2022-11-24T05:48:36.073Z,23.17
2022-11-24T05:50:37.785Z,22.60
2022-11-24T05:52:39.489Z,22.72
2022-11-24T05:54:41.098Z,22.71
2022-11-24T05:56:42.715Z,22.90
2022-11-24T05:58:44.316Z,22.71
2022-11-24T06:00:45.967Z,22.72
2022-11-24T06:02:47.699Z,23.07
2022-11-24T06:04:49.370Z,22.87
2022-11-24T06:06:50.971Z,23.12
2022-11-24T06:08:52.569Z,22.60
2022-11-24T06:10:54.173Z,22.91
2022-11-24T06:12:55.788Z,22.76
2022-11-24T06:14:57.375Z,22.85
2022-11-24T06:16:59.088Z,22.70
2022-11-24T06:19:00.694Z,23.01
2022-11-24T06:21:10.751Z,22.79
2022-11-24T06:23:13.289Z,22.84
2022-11-24T06:25:15.462Z,23.02
2022-11-24T06:27:17.203Z,22.91
2022-11-24T06:29:18.828Z,22.79
2022-11-24T06:31:20.452Z,23.07
2022-11-24T06:33:22.079Z,22.55
2022-11-24T06:35:23.668Z,22.73
2022-11-24T06:37:25.278Z,23.10
2022-11-24T06:39:26.883Z,23.11
2022-11-24T06:41:28.487Z,22.62
2022-11-24T06:43:30.394Z,22.59
2022-11-24T06:45:32.026Z,23.07
2022-11-24T06:47:33.675Z,22.74
2022-11-24T06:49:35.269Z,22.85
2022-11-24T06:51:37.022Z,23.03
2022-11-24T06:53:39.551Z,22.95
2022-11-24T06:55:41.252Z,22.71
2022-11-24T06:57:42.882Z,22.77
2022-11-24T06:59:44.487Z,22.75
2022-11-24T07:01:46.351Z,22.92
2022-11-24T07:03:48.369Z,23.07
2022-11-24T07:05:50.103Z,22.75
2022-11-24T07:07:51.765Z,22.77
2022-11-24T07:09:53.419Z,22.91
2022-11-24T07:11:55.511Z,22.81
2022-11-24T07:14:00.030Z,22.97
2022-11-24T07:16:16.261Z,22.72
2022-11-24T07:18:17.918Z,22.75
2022-11-24T07:20:19.523Z,22.96
2022-11-24T07:22:21.103Z,23.05
2022-11-24T07:24:22.722Z,22.94
2022-11-24T07:26:24.464Z,22.97
2022-11-24T07:28:26.080Z,22.55
2022-11-24T07:30:27.944Z,22.63
2022-11-24T07:32:29.566Z,22.92
2022-11-24T07:34:31.269Z,23.06
2022-11-24T07:36:32.974Z,22.81
2022-11-24T07:38:34.630Z,22.83
2022-11-24T07:40:36.243Z,22.74
2022-11-24T07:42:37.841Z,22.79
2022-11-24T07:44:39.444Z,22.91
2022-11-24T07:46:41.043Z,22.51
2022-11-24T07:48:42.684Z,22.85
2022-11-24T07:50:44.336Z,22.73
2022-11-24T07:52:45.925Z,22.57
2022-11-24T07:54:47.569Z,22.89
2022-11-24T07:56:49.298Z,22.89
2022-11-24T07:58:52.946Z,22.65
2022-11-24T08:00:54.861Z,22.77
2022-11-24T08:02:56.467Z,23.06
2022-11-24T08:04:58.103Z,22.78
2022-11-24T08:06:59.706Z,22.90
2022-11-24T08:09:01.313Z,22.76
2022-11-24T08:11:07.349Z,22.73
2022-11-24T08:13:08.928Z,22.56
2022-11-24T08:15:11.359Z,22.61
2022-11-24T08:17:13.262Z,22.96
2022-11-24T08:19:14.922Z,22.99
2022-11-24T08:21:16.647Z,22.91
2022-11-24T08:23:18.306Z,22.94
2022-11-24T08:25:19.956Z,22.80
2022-11-24T08:27:21.626Z,22.80
2022-11-24T08:29:23.229Z,23.01
2022-11-24T08:31:25.294Z,23.11
2022-11-24T08:33:26.957Z,22.76
2022-11-24T08:35:28.936Z,23.06
2022-11-24T08:37:30.668Z,22.68
2022-11-24T08:39:32.840Z,22.74
2022-11-24T08:41:34.517Z,22.89
2022-11-24T08:43:36.290Z,22.62
2022-11-24T08:45:41.329Z,22.76
2022-11-24T08:47:43.516Z,22.87
2022-11-24T08:49:45.181Z,22.86
2022-11-24T08:51:46.867Z,22.70
2022-11-24T08:53:48.491Z,22.93
2022-11-24T08:55:50.186Z,22.80
2022-11-24T08:57:51.830Z,22.76
2022-11-24T08:59:53.435Z,22.69
2022-11-24T09:01:55.101Z,22.88
2022-11-24T09:03:56.878Z,22.69
2022-11-24T09:05:58.575Z,22.92
2022-11-24T09:08:00.181Z,22.89
2022-11-24T09:10:02.073Z,22.92
2022-11-24T09:12:03.846Z,22.62
2022-11-24T09:14:05.437Z,22.88
2022-11-24T09:16:11.651Z,22.56
2022-11-24T09:18:13.243Z,22.87
2022-11-24T09:20:14.952Z,22.73
2022-11-24T09:22:16.545Z,22.87
2022-11-24T09:24:18.136Z,22.96
2022-11-24T09:26:24.237Z,23.02
2022-11-24T09:28:25.882Z,22.69
2022-11-24T09:30:28.212Z,22.87
2022-11-24T09:32:30.173Z,22.61
2022-11-24T09:34:31.778Z,22.57
2022-11-24T09:36:33.591Z,22.87
2022-11-24T09:38:35.417Z,22.77
2022-11-24T09:40:36.999Z,22.83
2022-11-24T09:43:34.041Z,22.47
2022-11-24T09:46:12.902Z,22.88
2022-11-24T09:48:26.166Z,22.86
2022-11-24T09:50:33.414Z,22.61
2022-11-24T09:52:53.506Z,22.70
2022-11-24T09:54:57.718Z,22.92
2022-11-24T09:57:00.490Z,22.83
2022-11-24T09:59:21.784Z,22.99
2022-11-24T10:01:44.203Z,22.87
2022-11-24T10:03:47.684Z,22.78
2022-11-24T10:05:49.836Z,22.76
2022-11-24T10:08:08.496Z,22.68
2022-11-24T10:10:22.888Z,22.57
2022-11-24T10:12:49.934Z,22.93
2022-11-24T10:14:55.337Z,22.59
2022-11-24T10:16:56.700Z,23.02
2022-11-24T10:19:04.669Z,22.63
2022-11-24T10:21:30.967Z,22.65
2022-11-24T10:24:00.030Z,22.81
2022-11-24T10:26:01.721Z,22.63
2022-11-24T10:28:04.816Z,22.63
2022-11-24T10:30:22.613Z,23.06
2022-11-24T10:32:35.257Z,23.07
2022-11-24T10:34:44.557Z,22.77
2022-11-24T10:37:01.605Z,22.92
2022-11-24T10:39:30.617Z,22.89
2022-11-24T10:41:38.153Z,22.79
2022-11-24T10:43:40.933Z,23.09
2022-11-24T10:45:42.541Z,23.06
2022-11-24T10:47:44.403Z,22.73
2022-11-24T10:49:55.035Z,22.72
2022-11-24T10:52:20.203Z,22.86
2022-11-24T10:54:23.292Z,22.65
2022-11-24T10:56:24.968Z,22.75
2022-11-24T10:58:37.087Z,22.83
2022-11-24T11:00:39.487Z,22.96
2022-11-24T11:02:41.189Z,22.92
2022-11-24T11:04:42.848Z,23.09
2022-11-24T11:06:44.505Z,22.78
2022-11-24T11:08:46.217Z,23.01
2022-11-24T11:11:07.696Z,22.82
2022-11-24T11:13:28.649Z,22.82
2022-11-24T11:15:30.833Z,22.66
2022-11-24T11:17:36.756Z,22.93
2022-11-24T11:20:01.685Z,22.76
2022-11-24T11:22:10.180Z,22.95
2022-11-24T11:24:15.974Z,22.90
2022-11-24T11:26:19.261Z,22.75
2022-11-24T11:28:28.037Z,22.83
2022-11-24T11:35:18.517Z,22.58
2022-11-24T11:37:20.818Z,22.99
2022-11-24T11:39:41.343Z,22.66
2022-11-24T11:41:45.622Z,22.74
2022-11-24T11:43:47.367Z,23.08
2022-11-24T11:45:56.274Z,22.75
2022-11-24T11:48:01.019Z,22.56
2022-11-24T11:50:02.634Z,23.07
2022-11-24T11:52:36.604Z,22.92
2022-11-24T11:54:51.325Z,22.50
2022-11-24T11:57:06.565Z,22.67
2022-11-24T11:59:39.219Z,22.68
2022-11-24T12:02:05.196Z,22.76
2022-11-24T12:04:37.069Z,22.79
2022-11-24T12:06:57.184Z,22.90
2022-11-24T12:09:31.691Z,22.63
2022-11-24T12:11:47.804Z,22.69
2022-11-24T12:14:07.127Z,22.87
2022-11-24T12:16:38.197Z,22.97
2022-11-24T12:18:59.285Z,22.86
2022-11-24T12:21:30.015Z,22.85
2022-11-24T12:23:45.261Z,22.79
2022-11-24T12:25:52.656Z,22.93
2022-11-24T12:28:14.787Z,22.81
2022-11-24T12:30:16.857Z,22.65
2022-11-24T12:32:55.881Z,22.67
2022-11-24T12:35:06.508Z,22.71
2022-11-24T12:37:37.106Z,22.54
2022-11-24T12:39:44.329Z,22.68
2022-11-24T12:42:03.952Z,23.00
2022-11-24T12:44:05.557Z,22.73
2022-11-24T12:46:28.375Z,22.59
2022-11-24T12:48:32.924Z,22.83
2022-11-24T12:50:37.956Z,22.96
2022-11-24T12:52:58.819Z,22.65
2022-11-24T12:55:00.740Z,22.75
2022-11-24T12:57:37.938Z,22.74
2022-11-24T12:59:52.875Z,22.88
2022-11-24T13:02:23.296Z,22.89
2022-11-24T13:04:47.980Z,23.50
2022-11-24T13:06:54.345Z,23.59
2022-11-24T13:08:56.024Z,24.10
2022-11-24T13:11:21.620Z,24.34
2022-11-24T13:13:30.692Z,24.03
2022-11-24T13:18:48.957Z,24.18
2022-11-24T13:20:50.603Z,24.52
2022-11-24T13:22:56.120Z,24.71
2022-11-24T13:25:33.489Z,24.58
2022-11-24T13:27:43.087Z,24.75
2022-11-24T13:29:49.226Z,24.43
2022-11-24T13:31:51.015Z,24.68
2022-11-24T13:33:52.824Z,24.53
2022-11-24T13:36:03.273Z,24.62
2022-11-24T13:38:40.166Z,24.34
2022-11-24T13:40:49.827Z,24.46
2022-11-24T13:43:01.729Z,24.56
2022-11-24T13:45:05.135Z,24.55
2022-11-24T13:47:32.835Z,24.52
2022-11-24T13:49:41.263Z,24.66
2022-11-24T13:51:42.995Z,24.41
2022-11-24T13:53:45.861Z,24.43
2022-11-24T13:55:59.239Z,24.57
2022-11-24T13:58:25.800Z,24.50
2022-11-24T14:00:35.363Z,24.58
2022-11-24T14:02:37.181Z,24.64
2022-11-24T14:04:38.926Z,24.96
2022-11-24T14:06:44.545Z,24.67
2022-11-24T14:08:46.201Z,24.88
2022-11-24T14:10:49.551Z,24.69
2022-11-24T14:13:24.416Z,24.91
2022-11-24T14:15:27.122Z,25.02
2022-11-24T14:17:28.958Z,25.03
2022-11-24T14:19:32.218Z,25.17
2022-11-24T14:21:38.542Z,25.14
2022-11-24T14:23:42.011Z,25.32
2022-11-24T14:25:50.210Z,25.42
2022-11-24T14:27:52.139Z,25.58
2022-11-24T14:30:02.108Z,25.56
2022-11-24T14:32:04.033Z,25.10
2022-11-24T14:34:11.967Z,25.35
2022-11-24T14:36:17.033Z,25.03
2022-11-24T14:38:18.769Z,25.21
2022-11-24T14:40:49.035Z,25.64
2022-11-24T14:42:50.780Z,25.48
2022-11-24T14:44:59.901Z,25.59
2022-11-24T14:47:05.438Z,25.74
2022-11-24T14:49:07.165Z,25.49
2022-11-24T14:51:18.186Z,25.54
2022-11-24T14:53:24.731Z,25.58
2022-11-24T14:55:32.153Z,25.18
2022-11-24T14:57:35.303Z,25.47
2022-11-24T14:59:37.092Z,25.33
2022-11-24T15:01:38.868Z,25.41
2022-11-24T15:03:40.590Z,25.64
2022-11-24T15:05:58.696Z,25.56
2022-11-24T15:08:01.855Z,25.70
2022-11-24T15:10:05.965Z,25.52
2022-11-24T15:12:10.939Z,25.47
2022-11-24T15:14:51.637Z,25.34
2022-11-24T15:16:53.704Z,25.25
2022-11-24T15:19:00.137Z,25.21
2022-11-24T15:21:01.858Z,25.07
2022-11-24T15:23:23.781Z,24.99
2022-11-24T15:25:32.855Z,24.99
2022-11-24T15:27:34.583Z,24.87
2022-11-24T15:29:36.278Z,25.08
2022-11-24T15:31:39.264Z,25.41
2022-11-24T15:33:41.267Z,25.41
2022-11-24T15:35:43.226Z,25.34
2022-11-24T15:37:46.171Z,25.34
2022-11-24T15:39:47.854Z,25.46
2022-11-24T15:41:49.610Z,25.46
2022-11-24T15:43:51.294Z,25.95
2022-11-24T15:45:53.044Z,25.68
2022-11-24T15:47:54.896Z,25.68
2022-11-24T15:49:56.617Z,25.69
2022-11-24T15:51:58.393Z,25.68
2022-11-24T15:54:01.454Z,25.77
2022-11-24T15:56:03.952Z,25.68
2022-11-24T15:58:05.830Z,25.77
2022-11-24T16:00:08.278Z,26.27
2022-11-24T16:02:10.085Z,26.58
2022-11-24T16:04:11.860Z,26.43
2022-11-24T16:06:19.098Z,26.41
2022-11-24T16:08:25.371Z,26.20
2022-11-24T16:10:30.278Z,26.26
2022-11-24T16:12:31.947Z,26.40
2022-11-24T16:14:34.606Z,26.46
2022-11-24T16:16:36.664Z,26.24
2022-11-24T16:18:38.532Z,26.43
2022-11-24T16:20:40.278Z,26.30
2022-11-24T16:22:41.974Z,26.33
2022-11-24T16:24:44.268Z,26.50
2022-11-24T16:26:45.955Z,26.55
2022-11-24T16:28:48.975Z,26.47
2022-11-24T16:30:50.938Z,26.64
2022-11-24T16:32:53.626Z,26.54
2022-11-24T16:34:55.912Z,26.44
2022-11-24T16:36:57.605Z,26.63
2022-11-24T16:38:59.977Z,26.47
2022-11-24T16:41:01.691Z,26.64
2022-11-24T16:43:03.496Z,26.49
2022-11-24T16:45:05.673Z,26.72
2022-11-24T16:47:08.227Z,26.65
2022-11-24T16:49:09.998Z,26.52
2022-11-24T16:51:11.900Z,26.62
2022-11-24T16:53:13.700Z,26.15
2022-11-24T16:55:15.377Z,26.50
2022-11-24T16:57:17.079Z,26.47
2022-11-24T16:59:18.857Z,26.60
2022-11-24T17:01:21.436Z,26.65
2022-11-24T17:03:23.205Z,26.38
2022-11-24T17:05:25.485Z,26.72
2022-11-24T17:07:27.277Z,26.72
2022-11-24T17:09:37.375Z,26.30
2022-11-24T17:11:41.888Z,26.36
2022-11-24T17:13:44.393Z,26.29
2022-11-24T17:15:51.015Z,26.35
2022-11-24T17:18:22.825Z,25.61
2022-11-24T17:20:17.319Z,25.73
2022-11-24T17:22:19.026Z,25.65
2022-11-24T17:24:20.719Z,25.05
2022-11-24T17:26:22.384Z,25.46
2022-11-24T17:28:24.059Z,25.42
2022-11-24T17:30:25.772Z,25.48
2022-11-24T17:32:27.474Z,25.53
2022-11-24T17:34:29.150Z,25.06
2022-11-24T17:36:31.539Z,25.34
2022-11-24T17:38:33.311Z,25.37
2022-11-24T17:40:35.008Z,25.23
2022-11-24T17:42:36.753Z,24.77
2022-11-24T17:44:38.499Z,24.68
2022-11-24T17:46:40.946Z,24.57
2022-11-24T17:48:42.733Z,24.40
2022-11-24T17:50:44.434Z,24.37
2022-11-24T17:52:46.137Z,24.40
2022-11-24T17:54:47.850Z,24.03
2022-11-24T17:56:49.550Z,23.38
2022-11-24T17:59:00.372Z,23.06
2022-11-24T18:01:02.187Z,22.80
2022-11-24T18:03:04.067Z,22.55
2022-11-24T18:05:05.907Z,22.78
2022-11-24T18:07:07.791Z,22.97
2022-11-24T18:09:09.644Z,22.61
2022-11-24T18:11:21.262Z,22.24
2022-11-24T18:13:48.740Z,22.53
2022-11-24T18:15:49.008Z,22.20
2022-11-24T18:17:54.132Z,22.15
2022-11-24T18:19:56.315Z,22.33
2022-11-24T18:21:58.092Z,22.13
2022-11-24T18:23:59.788Z,22.04
2022-11-24T18:26:04.835Z,21.93
2022-11-24T18:28:06.503Z,22.23
2022-11-24T18:30:08.554Z,21.91
2022-11-24T18:32:10.383Z,22.35
2022-11-24T18:34:12.100Z,22.18
2022-11-24T18:36:18.578Z,22.51
2022-11-24T18:38:20.190Z,22.33
2022-11-24T18:40:21.863Z,22.50
2022-11-24T18:42:23.511Z,22.21
2022-11-24T18:44:25.346Z,22.63
2022-11-24T18:46:27.087Z,22.59
2022-11-24T18:48:28.756Z,22.17
2022-11-24T18:50:30.447Z,22.05
2022-11-24T18:52:32.228Z,21.77
2022-11-24T18:54:35.648Z,21.74
2022-11-24T18:56:38.493Z,21.87
2022-11-24T18:58:40.357Z,21.65
2022-11-24T19:00:42.108Z,21.43
2022-11-24T19:02:43.909Z,21.22
2022-11-24T19:04:45.588Z,21.63
2022-11-24T19:06:47.297Z,21.50
2022-11-24T19:08:49.031Z,21.52
2022-11-24T19:10:50.645Z,21.42
2022-11-24T19:12:52.698Z,21.07
2022-11-24T19:14:54.654Z,21.37
2022-11-24T19:16:56.415Z,21.25
2022-11-24T19:18:58.652Z,21.10
2022-11-24T19:21:00.345Z,20.84
2022-11-24T19:23:02.643Z,20.87
2022-11-24T19:25:04.772Z,20.83
2022-11-24T19:27:06.569Z,20.96
2022-11-24T19:29:08.389Z,20.99
2022-11-24T19:31:11.659Z,21.11
2022-11-24T19:33:13.481Z,20.79
2022-11-24T19:35:15.288Z,20.88
2022-11-24T19:37:17.008Z,20.73
2022-11-24T19:39:18.632Z,20.63
2022-11-24T19:41:21.235Z,20.41
2022-11-24T19:43:22.859Z,20.36
2022-11-24T19:45:24.580Z,20.27
2022-11-24T19:47:26.412Z,20.41
2022-11-24T19:49:28.067Z,20.38
2022-11-24T19:51:31.323Z,20.36
2022-11-24T19:53:33.413Z,20.47
2022-11-24T19:55:35.073Z,20.34
2022-11-24T19:57:36.884Z,20.35
2022-11-24T19:59:38.624Z,20.44
2022-11-24T20:01:40.504Z,20.42
2022-11-24T20:03:42.933Z,20.13
2022-11-24T20:05:44.657Z,20.03
2022-11-24T20:07:46.496Z,20.11
2022-11-24T20:09:48.200Z,20.07
2022-11-24T20:11:49.870Z,20.35
2022-11-24T20:13:51.527Z,20.18
2022-11-24T20:15:53.228Z,20.33
2022-11-24T20:17:54.956Z,20.16
2022-11-24T20:19:56.656Z,20.48
2022-11-24T20:21:58.340Z,20.38
2022-11-24T20:24:05.241Z,20.11
2022-11-24T20:26:09.638Z,20.26
2022-11-24T20:28:11.101Z,20.51
2022-11-24T20:30:13.101Z,20.39
2022-11-24T20:32:14.872Z,20.61
2022-11-24T20:34:16.653Z,20.87
2022-11-24T20:36:20.012Z,20.74
2022-11-24T20:38:21.670Z,20.71
2022-11-24T20:40:23.400Z,20.87
2022-11-24T20:42:25.081Z,20.53
2022-11-24T20:44:26.884Z,20.46
2022-11-24T20:46:30.342Z,20.53
2022-11-24T20:48:32.048Z,20.57
2022-11-24T20:50:36.311Z,20.57
2022-11-24T20:52:38.000Z,20.57
2022-11-24T20:54:39.715Z,20.77
2022-11-24T20:56:42.685Z,20.87
2022-11-24T20:58:44.550Z,20.87
2022-11-24T21:00:46.255Z,20.81
2022-11-24T21:02:48.159Z,20.80
2022-11-24T21:04:49.974Z,20.79
2022-11-24T21:06:51.697Z,20.97
2022-11-24T21:08:53.482Z,20.58
2022-11-24T21:10:55.961Z,20.88
2022-11-24T21:12:57.647Z,21.00
2022-11-24T21:14:59.405Z,20.62
2022-11-24T21:17:01.115Z,21.09
2022-11-24T21:19:04.778Z,20.67
2022-11-24T21:21:06.686Z,20.84
2022-11-24T21:23:08.401Z,20.88
2022-11-24T21:25:10.115Z,20.80
2022-11-24T21:27:11.832Z,20.72
2022-11-24T21:29:14.150Z,21.03
2022-11-24T21:31:17.418Z,20.95
2022-11-24T21:33:19.170Z,21.08
2022-11-24T21:35:20.862Z,21.11
2022-11-24T21:37:22.543Z,21.07
2022-11-24T21:39:24.350Z,20.88
2022-11-24T21:41:27.146Z,21.15
2022-11-24T21:43:29.333Z,21.01
2022-11-24T21:45:31.038Z,20.79
2022-11-24T21:47:32.755Z,20.98
2022-11-24T21:49:34.459Z,21.21
2022-11-24T21:51:36.110Z,20.87
2022-11-24T21:53:37.922Z,20.98
2022-11-24T21:55:39.606Z,20.93
2022-11-24T21:57:41.312Z,21.01
2022-11-24T21:59:43.010Z,21.15
2022-11-24T22:01:44.747Z,21.23
2022-11-24T22:03:46.496Z,20.92
2022-11-24T22:05:59.185Z,21.09
2022-11-24T22:08:00.870Z,21.02
2022-11-24T22:10:02.558Z,21.18
2022-11-24T22:12:04.402Z,20.78
2022-11-24T22:14:06.149Z,20.94
2022-11-24T22:16:09.837Z,21.07
2022-11-24T22:18:11.796Z,21.06
2022-11-24T22:20:13.510Z,21.16
2022-11-24T22:22:15.235Z,21.04
2022-11-24T22:24:16.902Z,20.95
2022-11-24T22:26:20.184Z,21.25
2022-11-24T22:28:21.922Z,21.24
2022-11-24T22:30:23.588Z,21.27
2022-11-24T22:32:25.343Z,21.19
2022-11-24T22:34:27.074Z,21.33
2022-11-24T22:36:29.478Z,21.24
2022-11-24T22:38:31.347Z,21.36
2022-11-24T22:40:33.016Z,21.70
2022-11-24T22:42:34.766Z,21.85
2022-11-24T22:44:36.769Z,21.93
2022-11-24T22:46:38.648Z,21.88
2022-11-24T22:48:40.517Z,21.89
2022-11-24T22:50:42.156Z,21.54
2022-11-24T22:52:43.849Z,21.74
2022-11-24T22:54:45.551Z,21.64
2022-11-24T22:56:47.359Z,21.92
2022-11-24T22:58:49.239Z,21.98
2022-11-24T23:00:50.934Z,21.84
2022-11-24T23:02:54.256Z,21.85
2022-11-24T23:04:56.072Z,21.66
2022-11-24T23:06:57.754Z,21.82
2022-11-24T23:09:00.100Z,21.74
2022-11-24T23:11:06.066Z,21.46
2022-11-24T23:13:07.761Z,21.84
2022-11-24T23:15:09.801Z,21.81
2022-11-24T23:17:11.517Z,21.38
2022-11-24T23:19:13.237Z,21.68
2022-11-24T23:21:16.728Z,21.59
2022-11-24T23:23:18.512Z,21.62
2022-11-24T23:25:20.182Z,21.63
2022-11-24T23:27:21.986Z,21.61
2022-11-24T23:29:23.705Z,21.62
2022-11-24T23:31:26.237Z,21.54
2022-11-24T23:33:28.020Z,21.24
2022-11-24T23:35:29.715Z,21.42
2022-11-24T23:37:52.097Z,21.41
2022-11-24T23:39:53.027Z,21.61
2022-11-24T23:41:54.764Z,21.41
2022-11-24T23:43:56.486Z,21.37
2022-11-24T23:46:16.620Z,21.24
2022-11-24T23:48:18.392Z,21.59
2022-11-24T23:50:20.072Z,21.52
2022-11-24T23:52:21.777Z,21.26
2022-11-24T23:54:23.487Z,21.45
2022-11-24T23:56:29.817Z,21.35
2022-11-24T23:58:31.764Z,21.23
